Time;durP1;ratioP1;P1;durP2;ratioP2;P2;SDS_P1;SDS_P2;PMS_P1;PMS_P2;Temp;Humidity;BMP_temperature;BMP_pressure;BME280_temperature;BME280_humidity;BME280_pressure;Samples;Min_cycle;Max_cycle;Signal;HPM_P1;HPM_P2
2022/01/20 00:01:43;;;;;;;6.27;5.63;;;4.50;99.90;;;5.26;100.00;-19905.81;5111128;28;20359;-63
2022/01/20 00:04:21;;;;;;;6.50;5.63;;;4.50;99.90;;;5.25;100.00;-19905.47;5110973;28;20640;-63
2022/01/20 00:07:28;;;;;;;9.27;5.80;;;4.50;99.90;;;5.30;100.00;-19907.34;5111003;28;20761;-62
2022/01/20 00:26:49;;;;;;;6.40;5.70;;;4.50;99.90;;;5.41;100.00;-19911.09;5095162;28;20224;-62
2022/01/20 00:29:25;;;;;;;6.47;5.60;;;4.50;99.90;;;5.24;100.00;-19905.13;5090264;28;20264;-62
2022/01/20 00:32:08;;;;;;;8.33;6.20;;;4.50;99.90;;;5.27;100.00;-19906.31;5090324;28;20315;-65
2022/01/20 00:37:27;;;;;;;6.03;5.40;;;4.50;99.90;;;5.18;100.00;-19903.06;5090292;28;20284;-63
2022/01/20 00:39:57;;;;;;;7.67;5.40;;;4.40;99.90;;;5.05;100.00;-19898.81;5090317;28;20252;-62
2022/01/20 00:42:27;;;;;;;6.33;5.13;;;4.40;99.90;;;4.92;100.00;-19894.53;5090118;28;20230;-62
2022/01/20 00:44:55;;;;;;;6.93;5.17;;;4.30;99.90;;;4.86;100.00;-19892.31;5090468;28;20592;-64
2022/01/20 00:47:23;;;;;;;6.40;5.07;;;4.20;99.90;;;4.76;100.00;-19889.06;5090029;28;20297;-63
2022/01/20 00:49:51;;;;;;;6.40;5.40;;;4.20;99.90;;;4.78;100.00;-19889.56;5089615;28;20266;-62
2022/01/20 00:52:20;;;;;;;6.93;5.47;;;4.10;99.90;;;4.91;100.00;-19894.00;5090065;28;20240;-62
2022/01/20 00:54:48;;;;;;;6.67;5.57;;;4.10;99.90;;;5.06;100.00;-19898.97;5089588;28;20235;-62
2022/01/20 00:57:17;;;;;;;8.00;5.17;;;4.20;99.90;;;5.04;100.00;-19898.28;5090109;28;20206;-63
2022/01/20 00:59:45;;;;;;;6.00;4.80;;;4.20;99.90;;;4.91;100.00;-19894.00;5090816;28;20666;-67
2022/01/20 01:02:14;;;;;;;6.07;4.37;;;4.20;99.90;;;4.93;100.00;-19894.88;5090054;28;20294;-65
2022/01/20 01:04:42;;;;;;;6.13;4.60;;;4.20;99.90;;;4.99;100.00;-19896.91;5090099;28;20715;-65
2022/01/20 01:07:32;;;;;;;9.60;4.53;;;4.20;99.90;;;4.94;100.00;-19895.03;5089830;28;20251;-65
2022/01/20 01:10:00;;;;;;;6.83;4.30;;;4.20;99.90;;;4.99;100.00;-19896.75;5089639;28;20787;-65
2022/01/20 01:12:37;;;;;;;6.80;4.47;;;4.20;99.90;;;4.94;100.00;-19895.22;5089440;28;20256;-65
2022/01/20 01:15:13;;;;;;;7.63;3.83;;;4.20;99.90;;;4.87;100.00;-19892.81;5102383;28;20275;-65
2022/01/20 01:20:29;;;;;;;5.87;4.00;;;4.10;99.90;;;4.67;100.00;-19885.81;5089845;28;20262;-68
2022/01/20 01:22:58;;;;;;;7.67;3.63;;;4.00;99.90;;;4.65;100.00;-19885.13;5093010;28;20280;-66
2022/01/20 01:25:26;;;;;;;7.63;3.67;;;4.00;99.90;;;4.66;100.00;-19885.63;5093226;28;20708;-66
2022/01/20 01:27:57;;;;;;;7.37;3.93;;;3.90;99.90;;;4.74;100.00;-19888.38;5093757;28;20222;-67
2022/01/20 01:33:14;;;;;;;10.90;3.10;;;4.00;99.90;;;4.68;100.00;-19886.31;5093443;28;20235;-65
2022/01/20 01:35:42;;;;;;;6.20;2.53;;;4.00;99.90;;;4.75;100.00;-19888.72;5094308;28;20321;-65
2022/01/20 01:38:35;;;;;;;7.30;2.50;;;4.00;99.90;;;4.69;100.00;-19886.66;5093711;28;20246;-69
2022/01/20 01:41:12;;;;;;;4.87;2.07;;;4.00;99.90;;;4.72;100.00;-19887.50;5093233;28;20283;-69
2022/01/20 01:43:50;;;;;;;6.67;2.27;;;3.90;99.90;;;4.52;100.00;-19880.69;5093712;28;20250;-69
2022/01/20 01:46:18;;;;;;;9.70;2.37;;;3.90;99.90;;;4.45;100.00;-19878.28;5093542;28;20227;-69
2022/01/20 01:48:47;;;;;;;10.27;2.80;;;3.90;99.90;;;4.56;100.00;-19882.06;5093753;28;20219;-69
2022/01/20 01:51:15;;;;;;;13.00;2.23;;;3.80;99.90;;;4.46;100.00;-19878.81;5093349;28;20233;-69
2022/01/20 01:53:43;;;;;;;8.70;2.27;;;3.80;99.90;;;4.34;100.00;-19874.69;5093671;28;20768;-68
2022/01/20 01:56:11;;;;;;;11.67;2.67;;;3.70;99.90;;;4.29;100.00;-19873.00;5092873;28;20772;-70
2022/01/20 01:58:40;;;;;;;9.60;2.40;;;3.70;99.90;;;4.49;100.00;-19879.66;5093251;28;20658;-69
2022/01/20 02:01:09;;;;;;;10.23;2.67;;;3.70;99.90;;;4.50;100.00;-19880.16;5092950;28;20227;-70
2022/01/20 02:03:44;;;;;;;10.07;2.53;;;3.70;99.90;;;4.41;100.00;-19877.09;5093216;28;20221;-69
2022/01/20 02:06:34;;;;;;;12.73;3.00;;;3.70;99.90;;;4.35;100.00;-19875.03;5093023;28;20201;-68
2022/01/20 02:09:18;;;;;;;12.13;2.53;;;3.70;99.90;;;4.30;100.00;-19873.16;5093130;28;20280;-68
2022/01/20 02:20:13;;;;;;;7.93;1.97;;;3.60;99.90;;;4.04;100.00;-19864.28;5110360;28;20228;-69
2022/01/20 02:22:42;;;;;;;8.70;2.33;;;3.50;99.90;;;3.86;100.00;-19858.28;5112935;28;20221;-69
2022/01/20 02:25:23;;;;;;;9.90;2.33;;;3.40;99.90;;;3.98;100.00;-19862.41;5112728;28;20255;-68
2022/01/20 02:27:51;;;;;;;9.77;2.20;;;3.30;99.90;;;3.87;100.00;-19858.63;5113015;28;20294;-71
2022/01/20 02:30:23;;;;;;;7.63;2.30;;;3.30;99.90;;;3.81;100.00;-19856.59;5113248;28;20242;-63
2022/01/20 02:32:56;;;;;;;9.40;2.37;;;3.20;99.90;;;3.82;100.00;-19856.94;5113266;28;20220;-64
2022/01/20 02:35:32;;;;;;;14.17;2.93;;;3.20;99.90;;;3.93;100.00;-19860.50;5112510;27;20263;-65
2022/01/20 02:38:07;;;;;;;8.10;2.60;;;3.20;99.90;;;3.75;100.00;-19854.69;5112801;28;20754;-63
2022/01/20 02:46:10;;;;;;;7.60;1.90;;;2.90;99.90;;;3.38;100.00;-19841.88;5112060;28;20286;-63
2022/01/20 02:48:38;;;;;;;9.80;2.37;;;2.90;99.90;;;3.53;100.00;-19847.19;5112490;28;20230;-63
2022/01/20 02:51:08;;;;;;;9.67;2.20;;;2.80;99.90;;;3.71;100.00;-19853.34;5112840;28;20686;-64
2022/01/20 02:53:36;;;;;;;10.13;2.67;;;2.90;99.90;;;3.45;100.00;-19844.28;5113044;28;20270;-64
2022/01/20 02:56:04;;;;;;;7.00;1.83;;;2.90;99.90;;;3.73;100.00;-19853.84;5112252;28;20653;-63
2022/01/20 02:58:32;;;;;;;7.63;1.80;;;2.90;99.90;;;3.70;100.00;-19853.00;5112381;28;20588;-64
2022/01/20 03:01:01;;;;;;;9.00;1.90;;;3.00;99.90;;;3.88;100.00;-19858.97;5112309;28;20247;-63
2022/01/20 03:03:29;;;;;;;4.70;2.30;;;3.00;99.90;;;3.76;100.00;-19854.88;5112225;28;20224;-64
2022/01/20 03:05:57;;;;;;;8.07;2.00;;;3.00;99.90;;;3.48;100.00;-19845.31;5112782;28;20231;-64
2022/01/20 03:08:27;;;;;;;4.83;1.90;;;3.00;99.90;;;3.50;100.00;-19846.16;5111761;28;20597;-64
2022/01/20 03:10:55;;;;;;;5.50;2.10;;;2.90;99.90;;;3.64;100.00;-19850.94;5111643;28;20315;-63
2022/01/20 03:13:23;;;;;;;6.73;2.33;;;2.90;99.90;;;3.50;100.00;-19846.00;5111856;28;20378;-63
2022/01/20 03:15:52;;;;;;;11.77;2.47;;;2.90;99.90;;;3.45;100.00;-19844.28;5111819;28;20722;-63
2022/01/20 03:18:20;;;;;;;5.40;2.10;;;2.80;99.90;;;3.75;100.00;-19854.53;5105224;28;20199;-64
2022/01/20 03:20:48;;;;;;;4.33;2.17;;;2.90;99.90;;;3.49;100.00;-19845.81;5112484;28;20237;-63
2022/01/20 03:23:16;;;;;;;11.07;2.00;;;2.90;99.90;;;3.57;100.00;-19848.53;5111598;28;20256;-63
2022/01/20 03:25:46;;;;;;;11.20;2.03;;;2.90;99.90;;;3.67;100.00;-19851.97;5111353;28;20329;-63
2022/01/20 03:28:14;;;;;;;7.03;1.90;;;2.90;99.90;;;3.63;100.00;-19850.59;5111536;28;20231;-63
2022/01/20 03:30:42;;;;;;;12.53;2.20;;;2.90;99.90;;;3.77;100.00;-19855.03;5111869;28;20689;-63
2022/01/20 03:33:10;;;;;;;9.13;2.00;;;3.00;99.90;;;3.67;100.00;-19851.97;5111138;28;20202;-63
2022/01/20 03:35:40;;;;;;;8.40;2.43;;;3.00;99.90;;;3.78;100.00;-19855.56;5111918;28;20278;-63
2022/01/20 03:38:09;;;;;;;7.27;1.93;;;3.10;99.90;;;3.72;100.00;-19853.50;5110720;28;20249;-64
2022/01/20 03:40:37;;;;;;;7.93;1.83;;;3.10;99.90;;;3.57;100.00;-19848.53;5111385;28;20629;-63
2022/01/20 03:43:06;;;;;;;7.27;1.90;;;3.00;99.90;;;3.67;100.00;-19851.97;5111268;28;20682;-64
2022/01/20 03:45:35;;;;;;;7.57;2.07;;;3.00;99.90;;;3.85;100.00;-19857.78;5110867;28;20323;-63
2022/01/20 03:48:09;;;;;;;7.43;2.27;;;3.10;99.90;;;3.65;100.00;-19851.13;5111033;28;20203;-64
2022/01/20 03:53:24;;;;;;;10.37;2.10;;;3.00;99.90;;;3.58;100.00;-19848.72;5110826;28;20236;-63
2022/01/20 03:55:53;;;;;;;7.67;2.03;;;3.00;99.90;;;3.44;100.00;-19844.09;5110687;28;20227;-64
2022/01/20 03:58:23;;;;;;;9.93;2.57;;;2.90;99.90;;;3.52;100.00;-19846.66;5111040;28;20303;-63
2022/01/20 04:00:51;;;;;;;12.60;2.60;;;2.90;99.90;;;3.61;100.00;-19849.91;5111181;28;20215;-63
2022/01/20 04:03:20;;;;;;;10.50;3.20;;;2.90;99.90;;;3.75;100.00;-19854.53;5110528;28;20715;-63
2022/01/20 04:05:57;;;;;;;12.33;2.37;;;3.00;99.90;;;3.77;100.00;-19855.03;5111680;28;20201;-63
2022/01/20 04:08:29;;;;;;;9.63;2.60;;;3.00;99.90;;;3.71;100.00;-19853.16;5110949;28;20227;-64
2022/01/20 04:10:58;;;;;;;11.33;2.50;;;3.00;99.90;;;3.82;100.00;-19856.94;5110677;28;20255;-63
2022/01/20 04:13:30;;;;;;;10.40;2.30;;;3.10;99.90;;;3.83;100.00;-19857.25;5110715;28;20222;-63
2022/01/20 04:16:01;;;;;;;9.57;2.93;;;3.10;99.90;;;3.70;100.00;-19853.00;5110800;28;20325;-64
2022/01/20 04:18:30;;;;;;;14.33;3.00;;;3.10;99.90;;;3.92;100.00;-19860.34;5104455;28;20281;-64
2022/01/20 04:20:58;;;;;;;15.00;2.80;;;3.10;99.90;;;3.93;100.00;-19860.50;5111299;28;20230;-64
2022/01/20 04:23:26;;;;;;;11.93;2.70;;;3.10;99.90;;;4.03;100.00;-19863.94;5110773;28;20232;-63
2022/01/20 04:25:54;;;;;;;8.10;2.60;;;3.20;99.90;;;4.08;100.00;-19865.81;5110359;28;20221;-63
2022/01/20 04:28:22;;;;;;;12.00;2.70;;;3.30;99.90;;;4.10;100.00;-19866.31;5110552;28;20674;-63
2022/01/20 04:30:51;;;;;;;14.07;2.50;;;3.30;99.90;;;4.26;100.00;-19871.78;5110640;28;20259;-63
2022/01/20 04:33:19;;;;;;;13.63;3.77;;;3.40;99.90;;;4.31;100.00;-19873.66;5110231;28;20195;-63
2022/01/20 04:35:48;;;;;;;9.60;2.57;;;3.50;99.90;;;4.25;100.00;-19871.44;5111286;28;20217;-63
2022/01/20 04:38:16;;;;;;;8.83;2.27;;;3.50;99.90;;;4.30;100.00;-19873.34;5109918;28;20232;-64
2022/01/20 04:40:44;;;;;;;8.80;2.10;;;3.50;99.90;;;4.17;100.00;-19868.72;5109656;28;20667;-64
2022/01/20 04:43:12;;;;;;;12.57;3.03;;;3.40;99.90;;;4.33;100.00;-19874.34;5110364;28;20261;-63
2022/01/20 04:45:46;;;;;;;10.57;2.30;;;3.50;99.90;;;4.30;100.00;-19873.34;5111596;28;20222;-63
2022/01/20 04:48:22;;;;;;;10.90;3.00;;;3.50;99.90;;;4.34;100.00;-19874.69;5110273;28;20668;-63
2022/01/20 04:59:08;;;;;;;14.20;3.50;;;3.50;99.90;;;4.28;100.00;-19872.66;5114463;28;20311;-64
2022/01/20 05:01:43;;;;;;;13.27;2.67;;;3.50;99.90;;;4.28;100.00;-19872.47;5114420;28;20229;-63
2022/01/20 05:04:13;;;;;;;7.90;2.70;;;3.50;99.90;;;4.41;100.00;-19876.94;5114405;28;20224;-63
2022/01/20 05:06:43;;;;;;;11.77;2.73;;;3.50;99.90;;;4.31;100.00;-19873.66;5114469;28;20296;-64
2022/01/20 05:09:17;;;;;;;16.07;3.23;;;3.60;99.90;;;4.62;100.00;-19884.28;5113970;28;20285;-63
2022/01/20 05:11:50;;;;;;;13.57;2.63;;;3.70;99.90;;;4.64;100.00;-19884.97;5115054;28;20222;-65
2022/01/20 05:14:23;;;;;;;15.63;2.97;;;3.70;99.90;;;4.56;100.00;-19882.22;5114233;28;20223;-64
2022/01/20 05:16:53;;;;;;;18.43;5.73;;;3.70;99.90;;;4.55;100.00;-19881.88;5114404;28;20281;-64
2022/01/20 05:19:23;;;;;;;12.53;3.13;;;3.80;99.90;;;4.72;100.00;-19887.69;5108029;28;20220;-64
2022/01/20 05:21:51;;;;;;;10.50;2.97;;;3.80;99.90;;;4.70;100.00;-19886.84;5114431;28;20306;-64
2022/01/20 05:24:22;;;;;;;12.20;2.70;;;3.80;99.90;;;4.76;100.00;-19888.88;5114221;28;20286;-63
2022/01/20 05:26:50;;;;;;;14.43;3.10;;;3.90;99.90;;;4.78;100.00;-19889.75;5114346;28;20653;-65
2022/01/20 05:29:19;;;;;;;12.60;3.53;;;3.90;99.90;;;4.81;100.00;-19890.59;5113847;28;20283;-68
2022/01/20 05:31:48;;;;;;;8.30;3.37;;;4.00;99.90;;;4.80;100.00;-19890.41;5113798;28;20306;-70
2022/01/20 05:34:17;;;;;;;16.80;3.10;;;4.00;99.90;;;4.84;100.00;-19891.63;5113888;28;20310;-70
2022/01/20 05:36:48;;;;;;;10.67;2.47;;;4.00;99.90;;;4.94;100.00;-19895.22;5113904;28;20258;-69
2022/01/20 05:39:17;;;;;;;10.20;2.80;;;4.00;99.90;;;4.86;100.00;-19892.47;5113617;28;20641;-64
2022/01/20 05:41:46;;;;;;;11.53;3.50;;;4.00;99.90;;;4.96;100.00;-19895.72;5114140;28;20732;-65
2022/01/20 05:44:14;;;;;;;17.13;3.70;;;4.10;99.90;;;4.99;100.00;-19896.91;5113709;28;20254;-64
2022/01/20 05:46:47;;;;;;;13.43;3.67;;;4.10;99.90;;;4.87;100.00;-19892.81;5113473;28;20678;-63
2022/01/20 05:49:21;;;;;;;11.23;3.57;;;4.10;99.90;;;4.86;100.00;-19892.47;5113655;28;20236;-63
2022/01/20 05:51:54;;;;;;;15.03;3.93;;;4.10;99.90;;;4.73;100.00;-19887.88;5113760;28;20314;-64
2022/01/20 05:54:23;;;;;;;11.63;3.27;;;4.00;99.90;;;4.73;100.00;-19888.03;5113258;28;20638;-63
2022/01/20 05:56:52;;;;;;;18.77;3.43;;;4.00;99.90;;;4.58;100.00;-19882.91;5113239;28;20246;-64
2022/01/20 05:59:21;;;;;;;7.33;2.10;;;4.00;99.90;;;4.52;100.00;-19880.69;5113253;28;20621;-64
2022/01/20 06:01:55;;;;;;;8.43;2.70;;;3.90;99.90;;;4.52;100.00;-19880.84;5112945;28;20934;-64
2022/01/20 06:04:24;;;;;;;7.87;1.97;;;3.80;99.90;;;4.50;100.00;-19880.16;5113833;28;20717;-63
2022/01/20 06:06:53;;;;;;;6.50;2.13;;;3.80;99.90;;;4.28;100.00;-19872.47;5113883;28;20231;-62
2022/01/20 06:09:21;;;;;;;7.37;1.97;;;3.70;99.90;;;4.13;100.00;-19867.34;5113928;28;20306;-67
2022/01/20 06:11:49;;;;;;;6.03;2.00;;;3.50;99.90;;;4.12;100.00;-19867.19;5114038;28;20661;-61
2022/01/20 06:14:17;;;;;;;10.50;1.90;;;3.50;99.90;;;4.05;100.00;-19864.63;5113787;28;20331;-62
2022/01/20 06:16:45;;;;;;;5.90;2.20;;;3.40;99.90;;;4.05;100.00;-19864.63;5113310;28;20304;-62
2022/01/20 06:19:14;;;;;;;10.07;2.73;;;3.20;99.90;;;3.97;100.00;-19862.06;5107208;28;20329;-63
2022/01/20 06:21:42;;;;;;;8.73;2.00;;;3.20;99.90;;;4.04;100.00;-19864.44;5113756;28;20232;-62
2022/01/20 06:24:12;;;;;;;8.10;2.30;;;3.30;99.90;;;3.89;100.00;-19859.31;5113359;28;20706;-62
2022/01/20 06:26:40;;;;;;;7.00;1.87;;;3.20;99.90;;;3.85;100.00;-19857.78;5113779;28;20206;-62
2022/01/20 06:29:08;;;;;;;4.70;2.10;;;3.20;99.90;;;3.78;100.00;-19855.38;5113355;27;20224;-62
2022/01/20 06:31:36;;;;;;;8.47;2.90;;;3.10;99.90;;;3.83;100.00;-19857.25;5113231;28;20666;-65
2022/01/20 06:34:04;;;;;;;8.03;2.13;;;3.10;99.90;;;3.67;100.00;-19851.97;5113261;27;20222;-62
2022/01/20 06:36:37;;;;;;;7.50;1.90;;;3.10;99.90;;;3.87;100.00;-19858.63;5112911;28;20698;-62
2022/01/20 06:39:05;;;;;;;4.27;1.53;;;3.10;99.90;;;3.48;100.00;-19845.47;5113258;28;20244;-63
2022/01/20 06:41:37;;;;;;;5.47;1.63;;;2.90;99.90;;;3.22;100.00;-19836.41;5113753;28;20648;-62
2022/01/20 06:44:06;;;;;;;6.33;1.73;;;2.70;99.90;;;3.13;100.00;-19833.34;5113133;27;20566;-63
2022/01/20 06:46:34;;;;;;;5.77;1.70;;;2.50;99.90;;;2.99;100.00;-19828.53;5113061;28;20219;-63
2022/01/20 06:49:04;;;;;;;3.87;1.53;;;2.30;99.90;;;2.86;100.00;-19824.28;5113105;28;20709;-62
2022/01/20 06:51:32;;;;;;;5.63;1.43;;;2.30;99.90;;;2.87;100.00;-19824.44;5112655;27;20288;-62
2022/01/20 06:54:00;;;;;;;6.43;1.70;;;2.20;99.90;;;2.66;100.00;-19817.25;5113092;28;20214;-63
2022/01/20 06:56:28;;;;;;;3.83;1.70;;;2.10;99.90;;;2.72;100.00;-19819.31;5113002;28;20222;-65
2022/01/20 06:59:09;;;;;;;5.97;1.70;;;2.00;99.90;;;2.54;100.00;-19813.34;5112646;28;20219;-62
2022/01/20 07:01:38;;;;;;;5.93;2.10;;;1.90;99.90;;;2.69;100.00;-19818.28;5112707;28;20314;-62
2022/01/20 07:04:08;;;;;;;10.57;2.23;;;1.90;99.90;;;2.53;100.00;-19812.81;5112869;28;20223;-62
2022/01/20 07:06:37;;;;;;;8.83;2.17;;;1.90;99.90;;;2.71;100.00;-19818.97;5112806;28;20276;-63
2022/01/20 07:09:07;;;;;;;10.60;2.40;;;1.90;99.90;;;2.71;100.00;-19819.16;5112780;28;20302;-63
2022/01/20 07:11:36;;;;;;;7.23;2.00;;;1.90;99.90;;;2.74;100.00;-19820.16;5113097;28;20313;-63
2022/01/20 07:14:04;;;;;;;9.33;2.40;;;2.00;99.90;;;2.70;100.00;-19818.63;5112375;27;20246;-62
2022/01/20 07:16:34;;;;;;;10.30;2.30;;;2.00;99.90;;;2.76;100.00;-19820.84;5112260;28;20698;-62
2022/01/20 07:19:03;;;;;;;10.07;2.20;;;2.00;99.90;;;2.73;100.00;-19819.81;5110962;28;20319;-62
2022/01/20 07:21:32;;;;;;;6.73;1.97;;;2.00;99.90;;;2.48;100.00;-19811.47;5112361;28;20215;-62
2022/01/20 07:24:00;;;;;;;7.13;1.83;;;1.90;99.90;;;2.62;100.00;-19815.91;5113087;28;20221;-62
2022/01/20 07:26:28;;;;;;;9.00;1.53;;;2.00;99.90;;;2.48;100.00;-19811.28;5112313;28;20298;-62
2022/01/20 07:28:56;;;;;;;7.10;1.70;;;1.90;99.90;;;2.71;100.00;-19818.97;5112534;28;20338;-73
2022/01/20 07:31:24;;;;;;;6.23;1.90;;;2.00;99.90;;;2.56;100.00;-19814.00;5112616;28;20268;-72
2022/01/20 07:33:54;;;;;;;6.90;1.60;;;1.90;99.90;;;2.47;100.00;-19811.09;5112443;28;20243;-73
2022/01/20 07:36:22;;;;;;;5.17;1.57;;;2.00;99.90;;;2.46;100.00;-19810.78;5112208;28;20242;-73
2022/01/20 07:38:51;;;;;;;7.37;1.80;;;2.00;99.90;;;2.41;100.00;-19809.06;5112455;28;20266;-73
2022/01/20 07:41:21;;;;;;;7.73;1.60;;;1.90;99.90;;;2.36;100.00;-19807.34;5111980;28;20259;-74
2022/01/20 07:43:50;;;;;;;9.93;1.97;;;1.80;99.90;;;2.45;100.00;-19810.25;5112201;28;20234;-73
2022/01/20 07:46:19;;;;;;;7.13;1.83;;;1.90;99.90;;;2.59;100.00;-19814.88;5111910;28;20285;-69
2022/01/20 07:48:47;;;;;;;6.63;1.93;;;1.90;99.90;;;2.63;100.00;-19816.41;5111833;28;20211;-63
2022/01/20 07:51:17;;;;;;;10.27;1.80;;;2.00;99.90;;;2.62;100.00;-19815.91;5110542;28;20660;-62
2022/01/20 07:53:46;;;;;;;6.73;2.10;;;2.00;99.90;;;2.53;100.00;-19812.81;5107669;28;20294;-62
2022/01/20 07:56:15;;;;;;;8.03;1.67;;;2.00;99.90;;;2.45;100.00;-19810.44;5107857;28;20257;-62
2022/01/20 07:58:43;;;;;;;7.57;2.17;;;1.90;99.90;;;2.44;100.00;-19809.91;5107793;28;20720;-64
2022/01/20 08:01:11;;;;;;;7.23;2.03;;;1.90;99.90;;;2.42;100.00;-19809.22;5088779;28;20296;-65
2022/01/20 08:03:40;;;;;;;7.17;1.93;;;1.80;99.90;;;2.28;100.00;-19804.59;5090770;28;20231;-63
2022/01/20 08:06:08;;;;;;;6.83;1.50;;;1.80;99.90;;;2.17;100.00;-19800.84;5108133;28;20311;-62
2022/01/20 08:08:38;;;;;;;4.23;1.90;;;1.70;99.90;;;2.30;100.00;-19805.28;5099639;28;20221;-64
2022/01/20 08:11:06;;;;;;;6.27;1.80;;;1.80;99.90;;;2.35;100.00;-19807.00;5101162;27;20310;-66
2022/01/20 08:13:34;;;;;;;11.13;2.03;;;1.80;99.90;;;2.42;100.00;-19809.41;5108749;28;20234;-67
2022/01/20 08:16:02;;;;;;;8.77;1.70;;;1.80;99.90;;;2.35;100.00;-19806.84;5108017;28;20223;-67
2022/01/20 08:18:30;;;;;;;6.83;1.40;;;1.80;99.90;;;2.52;100.00;-19812.47;5108280;28;20234;-66
2022/01/20 08:20:58;;;;;;;7.20;1.70;;;1.80;99.90;;;2.66;100.00;-19817.25;5108476;28;20306;-66
2022/01/20 08:23:26;;;;;;;5.37;1.37;;;1.90;99.90;;;2.63;100.00;-19816.41;5108356;28;20322;-64
2022/01/20 08:25:56;;;;;;;4.50;1.60;;;2.00;99.90;;;2.59;100.00;-19814.88;5108901;28;20191;-66
2022/01/20 08:28:24;;;;;;;5.53;1.60;;;2.00;99.90;;;2.63;100.00;-19816.25;5107760;28;20219;-67
2022/01/20 08:30:53;;;;;;;5.53;1.60;;;2.00;99.90;;;2.71;100.00;-19818.97;5107895;28;20301;-67
2022/01/20 08:33:21;;;;;;;3.97;1.40;;;2.10;99.90;;;2.83;100.00;-19823.06;5108030;28;20227;-66
2022/01/20 08:35:50;;;;;;;7.57;2.47;;;2.20;99.90;;;2.94;100.00;-19827.00;5108073;28;20218;-66
2022/01/20 08:38:18;;;;;;;5.57;1.90;;;2.30;99.90;;;3.11;100.00;-19832.66;5108028;28;22092;-65
2022/01/20 08:40:47;;;;;;;4.17;1.63;;;2.30;99.90;;;3.12;100.00;-19833.00;5108484;28;20204;-65
2022/01/20 08:43:17;;;;;;;5.73;1.67;;;2.40;99.90;;;3.25;100.00;-19837.59;5107903;28;20315;-58
2022/01/20 08:45:46;;;;;;;9.37;1.77;;;2.50;99.90;;;3.28;100.00;-19838.47;5108095;28;20261;-58
2022/01/20 08:48:15;;;;;;;5.37;1.70;;;2.50;99.90;;;3.36;100.00;-19841.19;5107857;28;20277;-62
2022/01/20 08:50:45;;;;;;;6.53;2.07;;;2.60;99.90;;;3.37;100.00;-19841.72;5108249;28;20288;-63
2022/01/20 08:53:13;;;;;;;6.70;1.73;;;2.60;99.90;;;3.53;100.00;-19847.00;5107534;28;20894;-63
2022/01/20 08:55:41;;;;;;;5.83;1.77;;;2.70;99.90;;;3.59;100.00;-19849.22;5108184;28;20582;-63
2022/01/20 08:58:10;;;;;;;8.20;1.70;;;2.80;99.90;;;3.38;100.00;-19841.88;5107308;28;20235;-65
2022/01/20 09:00:39;;;;;;;6.10;1.70;;;2.70;99.90;;;3.46;100.00;-19844.63;5107912;28;20224;-66
2022/01/20 09:03:09;;;;;;;6.43;1.87;;;2.70;99.90;;;3.49;100.00;-19845.63;5107526;28;20656;-62
2022/01/20 09:05:38;;;;;;;7.60;2.13;;;2.70;99.90;;;3.73;97.30;-19854.03;5108015;28;20228;-61
2022/01/20 09:08:06;;;;;;;11.13;2.23;;;2.80;99.90;;;3.71;99.26;-19853.34;5100804;28;20206;-60
2022/01/20 09:10:38;;;;;;;6.53;1.60;;;2.80;99.90;;;3.83;97.94;-19857.09;5087331;28;20291;-61
2022/01/20 09:15:56;;;;;;;6.47;2.03;;;3.00;99.90;;;3.67;99.03;-19851.78;5068993;28;20219;-60
2022/01/20 09:18:25;;;;;;;10.10;2.20;;;2.90;99.90;;;3.78;97.83;-19855.56;5087226;28;20256;-62
2022/01/20 09:20:53;;;;;;;8.97;1.87;;;3.00;99.90;;;3.79;99.29;-19855.91;5101594;28;20252;-64
2022/01/20 09:23:21;;;;;;;6.53;1.87;;;3.00;99.90;;;3.73;99.73;-19854.03;5107626;28;20687;-59
2022/01/20 09:25:49;;;;;;;8.70;1.53;;;3.00;99.90;;;3.77;99.14;-19855.22;5107828;28;20241;-59
2022/01/20 09:28:18;;;;;;;8.70;1.80;;;2.90;99.90;;;3.75;100.00;-19854.53;5107112;28;20354;-58
2022/01/20 09:30:47;;;;;;;4.77;1.40;;;3.00;99.90;;;3.81;98.33;-19856.59;5107283;28;20297;-58
2022/01/20 09:33:25;;;;;;;8.30;2.20;;;3.00;99.90;;;3.79;97.20;-19855.72;5107369;28;20633;-70
2022/01/20 09:35:53;;;;;;;8.10;1.93;;;3.00;99.90;;;3.81;97.80;-19856.59;5107425;28;20269;-69
2022/01/20 09:38:21;;;;;;;7.53;2.43;;;3.00;99.90;;;3.81;98.90;-19856.59;5106814;28;20750;-68
2022/01/20 09:40:49;;;;;;;9.37;1.90;;;3.10;99.90;;;4.12;96.65;-19867.00;5107214;28;20798;-63
2022/01/20 09:43:18;;;;;;;9.13;2.27;;;3.20;99.90;;;4.00;96.78;-19863.06;5109351;28;20305;-64
2022/01/20 09:45:53;;;;;;;5.60;1.70;;;3.20;99.90;;;4.07;97.27;-19865.31;5111263;28;20240;-66
2022/01/20 09:48:23;;;;;;;8.37;1.77;;;3.20;99.90;;;4.15;99.14;-19868.03;5110973;28;20255;-59
2022/01/20 09:50:53;;;;;;;7.70;2.00;;;3.30;99.90;;;4.07;97.11;-19865.47;5111013;28;20227;-58
2022/01/20 09:53:21;;;;;;;4.87;1.83;;;3.30;99.90;;;4.26;97.81;-19871.97;5110874;27;20217;-58
2022/01/20 09:55:50;;;;;;;4.17;1.83;;;3.40;99.90;;;4.21;95.92;-19870.25;5111326;28;20201;-63
2022/01/20 09:58:18;;;;;;;8.90;2.00;;;3.40;99.90;;;4.19;96.01;-19869.41;5110624;28;20730;-60
2022/01/20 10:00:48;;;;;;;6.37;2.03;;;3.40;99.90;;;4.20;95.31;-19869.75;5110374;28;20311;-61
2022/01/20 10:03:20;;;;;;;7.37;2.10;;;3.40;99.90;;;4.21;96.94;-19870.09;5110913;28;20230;-61
2022/01/20 10:05:52;;;;;;;9.43;2.07;;;3.40;99.90;;;4.18;98.10;-19869.22;5091323;28;20779;-62
2022/01/20 10:08:24;;;;;;;9.43;2.37;;;3.40;99.90;;;4.18;97.94;-19869.06;5090054;28;20189;-61
2022/01/20 10:10:56;;;;;;;13.23;1.93;;;3.40;99.90;;;4.34;96.13;-19874.69;5090621;28;20206;-61
2022/01/20 10:13:28;;;;;;;7.47;2.40;;;3.40;99.90;;;4.25;96.24;-19871.63;5090181;28;20254;-66
2022/01/20 10:16:03;;;;;;;8.27;1.80;;;3.40;99.90;;;4.36;97.06;-19875.38;5089972;28;20359;-65
2022/01/20 10:18:33;;;;;;;7.20;1.87;;;3.50;99.90;;;4.50;96.90;-19880.16;5089845;28;20226;-65
2022/01/20 10:21:06;;;;;;;6.80;2.10;;;3.60;99.90;;;4.44;93.36;-19878.13;5104994;28;20305;-63
2022/01/20 10:23:39;;;;;;;5.20;2.00;;;3.60;99.90;;;4.51;92.25;-19880.50;5110642;28;20247;-65
2022/01/20 10:26:14;;;;;;;7.90;2.07;;;3.60;99.90;;;4.55;91.79;-19881.72;5109999;28;20281;-59
2022/01/20 10:29:02;;;;;;;7.97;2.40;;;3.70;99.90;;;4.66;88.31;-19885.63;5111042;28;20379;-73
2022/01/20 10:31:35;;;;;;;5.63;2.03;;;3.70;99.90;;;4.78;87.96;-19889.56;5110557;28;20289;-73
2022/01/20 10:34:05;;;;;;;5.67;1.97;;;3.80;99.90;;;4.82;88.00;-19890.94;5110089;28;20301;-69
2022/01/20 10:36:39;;;;;;;10.33;2.20;;;3.90;99.90;;;4.62;88.66;-19884.28;5109818;28;20316;-61
2022/01/20 10:39:08;;;;;;;9.27;2.07;;;3.80;99.90;;;4.80;90.06;-19890.25;5109758;28;20305;-68
2022/01/20 10:41:39;;;;;;;7.33;1.73;;;3.80;99.90;;;4.86;90.02;-19892.47;5109647;28;20278;-62
2022/01/20 10:44:11;;;;;;;9.33;2.37;;;3.90;99.90;;;4.93;88.23;-19894.88;5110111;28;20254;-64
2022/01/20 10:46:44;;;;;;;6.50;2.10;;;4.00;99.90;;;4.97;88.96;-19896.22;5110797;28;20548;-68
2022/01/20 10:49:15;;;;;;;7.27;1.80;;;4.00;99.90;;;4.90;87.90;-19893.84;5109603;28;20557;-65
2022/01/20 10:51:56;;;;;;;8.10;1.80;;;4.00;99.90;;;4.93;87.84;-19894.88;5109330;27;20827;-63
2022/01/20 10:54:24;;;;;;;9.23;2.43;;;4.00;99.90;;;4.99;88.31;-19896.91;5111185;27;20234;-61
2022/01/20 10:56:54;;;;;;;5.57;1.90;;;4.10;99.90;;;4.92;86.42;-19894.53;5133074;27;20221;-67
2022/01/20 10:59:24;;;;;;;6.97;2.13;;;4.10;99.90;;;5.09;87.08;-19900.00;5133053;27;20643;-68
2022/01/20 11:02:09;;;;;;;8.97;2.17;;;4.10;99.90;;;5.02;86.71;-19897.59;5098637;27;20206;-70
2022/01/20 11:04:39;;;;;;;7.30;2.10;;;4.10;99.90;;;5.30;87.43;-19907.19;5092728;28;20207;-70
2022/01/20 11:07:09;;;;;;;8.27;2.37;;;4.20;99.90;;;5.30;86.81;-19907.19;5091681;28;20729;-69
2022/01/20 11:09:43;;;;;;;10.20;2.27;;;4.20;99.90;;;5.54;87.12;-19915.56;5091336;28;20226;-69
2022/01/20 11:12:15;;;;;;;5.67;1.93;;;4.40;99.90;;;5.35;85.41;-19908.88;5091427;28;20249;-69
2022/01/20 11:14:46;;;;;;;8.27;2.10;;;4.30;99.90;;;5.28;86.65;-19906.50;5091289;28;20774;-69
2022/01/20 11:17:20;;;;;;;9.20;1.90;;;4.30;99.90;;;5.27;86.94;-19906.16;5091692;28;20195;-71
2022/01/20 11:19:49;;;;;;;9.93;2.13;;;4.30;99.90;;;5.40;86.35;-19910.75;5097305;28;20301;-70
2022/01/20 11:22:22;;;;;;;6.20;1.90;;;4.40;99.90;;;5.22;87.31;-19904.63;5111638;28;20778;-69
2022/01/20 11:25:01;;;;;;;13.17;2.57;;;4.30;99.90;;;5.19;88.08;-19903.41;5111600;27;20253;-62